createdAt,value
2023-05-14T00:00:30.559Z,25.00
2023-05-14T00:01:30.540Z,25.00
2023-05-14T00:02:30.645Z,25.00
2023-05-14T00:03:30.611Z,0.00
2023-05-14T00:04:30.651Z,0.00
2023-05-14T00:05:30.559Z,0.00
2023-05-14T00:06:30.557Z,0.00
2023-05-14T00:07:30.729Z,0.00
2023-05-14T00:08:30.577Z,0.00
2023-05-14T00:09:30.590Z,0.00
2023-05-14T00:10:30.620Z,13.70
2023-05-14T00:11:30.608Z,25.00
2023-05-14T00:12:30.618Z,25.00
2023-05-14T00:13:30.658Z,25.00
2023-05-14T00:14:30.639Z,25.00
2023-05-14T00:15:32.964Z,25.00
2023-05-14T00:16:30.725Z,25.08
2023-05-14T00:17:30.703Z,14.17
2023-05-14T00:18:30.605Z,7.09
2023-05-14T00:19:30.622Z,1.07
2023-05-14T00:20:30.553Z,0.00
2023-05-14T00:21:30.526Z,21.47
2023-05-14T00:22:30.518Z,25.00
2023-05-14T00:23:30.488Z,25.00
2023-05-14T00:24:30.475Z,25.01
2023-05-14T00:25:30.467Z,27.85
2023-05-14T00:26:30.441Z,25.00
2023-05-14T00:27:30.424Z,28.28
2023-05-14T00:28:30.408Z,25.89
2023-05-14T00:29:30.400Z,27.76
2023-05-14T00:30:29.358Z,28.18
2023-05-14T00:31:30.462Z,27.09
2023-05-14T00:32:30.368Z,27.93
2023-05-14T00:33:30.307Z,28.23
2023-05-14T00:34:30.296Z,25.69
2023-05-14T00:35:30.261Z,25.45
2023-05-14T00:36:30.250Z,27.96
2023-05-14T00:37:30.226Z,28.26
2023-05-14T00:38:30.204Z,26.08
2023-05-14T00:39:30.197Z,25.14
2023-05-14T00:40:30.163Z,26.51
2023-05-14T00:41:30.192Z,25.80
2023-05-14T00:42:30.144Z,26.24
2023-05-14T00:43:30.158Z,26.94
2023-05-14T00:44:30.182Z,26.06
2023-05-14T00:45:30.232Z,26.93
2023-05-14T00:46:30.225Z,25.86
2023-05-14T00:47:30.254Z,27.31
2023-05-14T00:48:30.258Z,26.50
2023-05-14T00:49:30.280Z,28.05
2023-05-14T00:50:30.305Z,27.84
2023-05-14T00:51:30.324Z,26.85
2023-05-14T00:52:30.346Z,26.22
2023-05-14T00:53:30.381Z,25.52
2023-05-14T00:54:30.394Z,28.42
2023-05-14T00:55:30.410Z,25.62
2023-05-14T00:56:30.416Z,26.65
2023-05-14T00:57:30.461Z,29.39
2023-05-14T00:58:30.454Z,28.22
2023-05-14T00:59:30.489Z,27.23
2023-05-14T01:00:30.506Z,27.48
2023-05-14T01:01:30.643Z,27.93
2023-05-14T01:02:30.596Z,28.61
2023-05-14T01:03:30.703Z,25.79
2023-05-14T01:04:30.610Z,25.42
2023-05-14T01:05:30.609Z,27.67
2023-05-14T01:06:30.724Z,26.43
2023-05-14T01:07:30.637Z,26.46
2023-05-14T01:08:30.659Z,26.19
2023-05-14T01:09:30.745Z,26.82
2023-05-14T01:10:30.695Z,25.59
2023-05-14T01:11:30.714Z,33.14
2023-05-14T01:12:30.737Z,31.59
2023-05-14T01:13:30.777Z,27.95
2023-05-14T01:14:30.935Z,28.27
2023-05-14T01:15:30.813Z,29.01
2023-05-14T01:16:30.818Z,27.69
2023-05-14T01:17:30.890Z,26.51
2023-05-14T01:18:30.877Z,26.13
2023-05-14T01:19:30.879Z,27.67
2023-05-14T01:20:31.020Z,27.11
2023-05-14T01:21:30.942Z,28.83
2023-05-14T01:22:30.935Z,28.13
2023-05-14T01:23:30.956Z,27.77
2023-05-14T01:24:30.986Z,27.09
2023-05-14T01:25:31.008Z,27.56
2023-05-14T01:26:31.015Z,26.30
2023-05-14T01:27:31.021Z,25.00
2023-05-14T01:28:31.038Z,26.25
2023-05-14T01:29:31.048Z,26.50
2023-05-14T01:30:31.076Z,25.99
2023-05-14T01:31:31.135Z,25.47
2023-05-14T01:32:31.159Z,25.78
2023-05-14T01:33:31.170Z,26.52
2023-05-14T01:34:31.149Z,27.47
2023-05-14T01:35:31.214Z,28.00
2023-05-14T01:36:31.212Z,28.25
2023-05-14T01:37:31.230Z,26.97
2023-05-14T01:38:31.244Z,26.69
2023-05-14T01:39:31.272Z,28.35
2023-05-14T01:40:31.287Z,29.30
2023-05-14T01:41:31.300Z,25.74
2023-05-14T01:42:31.313Z,27.94
2023-05-14T01:43:31.513Z,25.00
2023-05-14T01:44:31.363Z,28.07
2023-05-14T01:45:31.388Z,26.61
2023-05-14T01:46:31.456Z,26.72
2023-05-14T01:47:31.467Z,26.84
2023-05-14T01:48:31.436Z,26.49
2023-05-14T01:49:31.484Z,26.60
2023-05-14T01:50:31.482Z,28.31
2023-05-14T01:51:31.494Z,26.17
2023-05-14T01:52:31.509Z,27.51
2023-05-14T01:53:31.534Z,27.49
2023-05-14T01:54:31.538Z,26.64
2023-05-14T01:55:31.550Z,25.59
2023-05-14T01:56:31.574Z,28.98
2023-05-14T01:57:31.601Z,28.12
2023-05-14T01:58:31.629Z,28.69
2023-05-14T01:59:31.636Z,25.46
2023-05-14T02:00:31.656Z,27.13
2023-05-14T02:01:31.744Z,28.38
2023-05-14T02:02:31.733Z,27.98
2023-05-14T02:03:31.751Z,25.62
2023-05-14T02:04:31.758Z,27.52
2023-05-14T02:05:31.794Z,29.43
2023-05-14T02:06:31.782Z,27.69
2023-05-14T02:07:31.804Z,26.49
2023-05-14T02:08:31.822Z,26.95
2023-05-14T02:09:31.847Z,27.25
2023-05-14T02:10:31.862Z,26.00
2023-05-14T02:11:31.880Z,25.36
2023-05-14T02:12:31.901Z,27.04
2023-05-14T02:13:31.919Z,27.92
2023-05-14T02:14:31.946Z,26.77
2023-05-14T02:15:31.976Z,30.91
2023-05-14T02:16:32.076Z,30.59
2023-05-14T02:17:32.108Z,31.23
2023-05-14T02:18:32.058Z,29.40
2023-05-14T02:19:32.062Z,26.42
2023-05-14T02:20:32.078Z,26.37
2023-05-14T02:21:32.125Z,28.17
2023-05-14T02:22:32.128Z,27.42
2023-05-14T02:23:41.181Z,30.46
2023-05-14T02:24:32.128Z,30.69
2023-05-14T02:25:32.101Z,31.14
2023-05-14T02:26:32.088Z,30.79
2023-05-14T02:27:32.054Z,31.35
2023-05-14T02:28:32.041Z,27.86
2023-05-14T02:29:32.011Z,26.69
2023-05-14T02:30:31.988Z,30.47
2023-05-14T02:31:31.997Z,28.00
2023-05-14T02:32:31.950Z,26.05
2023-05-14T02:33:31.949Z,27.85
2023-05-14T02:34:31.878Z,28.69
2023-05-14T02:35:31.857Z,25.42
2023-05-14T02:36:31.843Z,27.95
2023-05-14T02:37:31.840Z,26.08
2023-05-14T02:38:31.810Z,27.05
2023-05-14T02:39:31.779Z,28.12
2023-05-14T02:40:31.784Z,27.48
2023-05-14T02:41:31.756Z,27.92
2023-05-14T02:42:31.721Z,27.46
2023-05-14T02:43:31.712Z,25.00
2023-05-14T02:44:31.708Z,27.16
2023-05-14T02:45:31.682Z,28.39
2023-05-14T02:46:31.727Z,28.92
2023-05-14T02:47:31.704Z,29.22
2023-05-14T02:48:31.605Z,30.95
2023-05-14T02:49:31.577Z,28.76
2023-05-14T02:50:31.589Z,26.65
2023-05-14T02:51:31.582Z,26.02
2023-05-14T02:52:31.503Z,27.98
2023-05-14T02:53:31.523Z,25.71
2023-05-14T02:54:31.496Z,28.07
2023-05-14T02:55:31.545Z,25.40
2023-05-14T02:56:31.552Z,28.79
2023-05-14T02:57:31.579Z,27.72
2023-05-14T02:58:31.611Z,27.51
2023-05-14T02:59:31.628Z,30.20
2023-05-14T03:00:31.652Z,28.73
2023-05-14T03:01:31.695Z,25.90
2023-05-14T03:02:31.773Z,28.63
2023-05-14T03:03:31.763Z,28.55
2023-05-14T03:04:31.751Z,26.86
2023-05-14T03:05:31.781Z,29.23
2023-05-14T03:06:31.795Z,27.96
2023-05-14T03:07:31.813Z,27.09
2023-05-14T03:08:31.838Z,29.20
2023-05-14T03:09:31.877Z,28.12
2023-05-14T03:10:31.880Z,25.93
2023-05-14T03:11:31.912Z,26.67
2023-05-14T03:12:31.930Z,25.67
2023-05-14T03:13:32.019Z,28.09
2023-05-14T03:14:31.976Z,31.16
2023-05-14T03:15:31.990Z,29.77
2023-05-14T03:16:32.098Z,29.99
2023-05-14T03:17:32.075Z,27.78
2023-05-14T03:18:32.058Z,26.29
2023-05-14T03:19:32.076Z,27.38
2023-05-14T03:20:32.074Z,30.23
2023-05-14T03:21:32.107Z,28.35
2023-05-14T03:22:32.128Z,26.75
2023-05-14T03:23:32.149Z,28.64
2023-05-14T03:24:32.181Z,29.40
2023-05-14T03:25:32.254Z,32.79
2023-05-14T03:26:32.239Z,30.97
2023-05-14T03:27:32.275Z,31.23
2023-05-14T03:28:32.299Z,30.13
2023-05-14T03:29:32.319Z,29.09
2023-05-14T03:30:32.391Z,30.09
2023-05-14T03:31:32.380Z,29.55
2023-05-14T03:32:32.441Z,30.98
2023-05-14T03:33:32.423Z,33.73
2023-05-14T03:34:32.453Z,28.62
2023-05-14T03:35:32.493Z,30.80
2023-05-14T03:36:32.506Z,29.88
2023-05-14T03:37:32.528Z,29.43
2023-05-14T03:38:32.561Z,26.77
2023-05-14T03:39:32.590Z,30.87
2023-05-14T03:40:32.629Z,30.12
2023-05-14T03:41:32.673Z,28.58
2023-05-14T03:42:32.687Z,29.93
2023-05-14T03:43:32.711Z,30.34
2023-05-14T03:44:32.756Z,32.49
2023-05-14T03:45:32.779Z,30.49
2023-05-14T03:46:32.808Z,29.98
2023-05-14T03:47:32.894Z,28.76
2023-05-14T03:48:32.891Z,30.40
2023-05-14T03:49:32.914Z,29.01
2023-05-14T03:50:32.942Z,28.67
2023-05-14T03:51:32.954Z,29.85
2023-05-14T03:52:32.975Z,28.29
2023-05-14T03:53:33.007Z,28.61
2023-05-14T03:54:33.040Z,29.02
2023-05-14T03:55:33.071Z,28.18
2023-05-14T03:56:33.111Z,30.00
2023-05-14T03:57:33.164Z,25.50
2023-05-14T03:58:33.150Z,29.66
2023-05-14T03:59:33.185Z,27.46
2023-05-14T04:00:33.219Z,29.34
2023-05-14T04:01:33.235Z,27.38
2023-05-14T04:02:33.340Z,28.73
2023-05-14T04:03:33.471Z,26.94
2023-05-14T04:04:33.373Z,27.34
2023-05-14T04:05:33.335Z,27.29
2023-05-14T04:06:33.370Z,27.20
2023-05-14T04:07:33.395Z,30.84
2023-05-14T04:08:33.427Z,28.31
2023-05-14T04:09:33.445Z,29.03
2023-05-14T04:10:33.491Z,29.38
2023-05-14T04:11:33.492Z,26.16
2023-05-14T04:12:33.529Z,25.58
2023-05-14T04:13:33.579Z,28.62
2023-05-14T04:14:33.585Z,26.96
2023-05-14T04:15:33.622Z,27.10
2023-05-14T04:16:33.703Z,26.59
2023-05-14T04:17:35.094Z,27.88
2023-05-14T04:18:33.823Z,26.47
2023-05-14T04:19:33.792Z,26.86
2023-05-14T04:20:33.827Z,26.57
2023-05-14T04:21:33.853Z,25.81
2023-05-14T04:22:33.875Z,27.94
2023-05-14T04:23:33.897Z,28.88
2023-05-14T04:24:33.932Z,27.09
2023-05-14T04:25:33.943Z,27.71
2023-05-14T04:26:33.970Z,25.99
2023-05-14T04:27:33.985Z,25.00
2023-05-14T04:28:34.029Z,30.07
2023-05-14T04:29:34.083Z,27.69
2023-05-14T04:30:34.105Z,27.68
2023-05-14T04:31:34.170Z,28.32
2023-05-14T04:32:34.224Z,28.63
2023-05-14T04:33:34.136Z,26.90
2023-05-14T04:34:34.161Z,29.70
2023-05-14T04:35:34.203Z,26.32
2023-05-14T04:36:34.221Z,27.96
2023-05-14T04:37:34.248Z,25.84
2023-05-14T04:38:34.270Z,27.88
2023-05-14T04:39:34.285Z,29.65
2023-05-14T04:40:34.312Z,28.12
2023-05-14T04:41:34.352Z,30.38
2023-05-14T04:42:34.378Z,29.47
2023-05-14T04:43:34.410Z,27.18
2023-05-14T04:44:34.441Z,28.83
2023-05-14T04:45:34.726Z,28.03
2023-05-14T04:46:34.573Z,26.60
2023-05-14T04:47:34.545Z,26.92
2023-05-14T04:48:34.548Z,27.39
2023-05-14T04:49:34.592Z,27.87
2023-05-14T04:50:34.604Z,27.19
2023-05-14T04:51:34.633Z,28.84
2023-05-14T04:52:34.678Z,29.16
2023-05-14T04:53:34.683Z,27.05
2023-05-14T04:54:34.800Z,29.79
2023-05-14T04:55:34.742Z,25.03
2023-05-14T04:56:34.786Z,28.97
2023-05-14T04:57:34.799Z,27.44
2023-05-14T04:58:35.316Z,26.38
2023-05-14T04:59:34.883Z,30.26
2023-05-14T05:00:34.902Z,28.51
2023-05-14T05:01:34.994Z,27.30
2023-05-14T05:02:35.050Z,29.21
2023-05-14T05:03:35.003Z,29.20
2023-05-14T05:04:35.072Z,31.72
2023-05-14T05:05:35.062Z,26.24
2023-05-14T05:06:35.100Z,27.46
2023-05-14T05:07:35.123Z,26.66
2023-05-14T05:08:35.154Z,28.00
2023-05-14T05:09:35.184Z,29.21
2023-05-14T05:10:35.229Z,28.61
2023-05-14T05:11:35.250Z,28.25
2023-05-14T05:12:35.298Z,26.03
2023-05-14T05:13:35.320Z,29.99
2023-05-14T05:14:35.343Z,26.49
2023-05-14T05:15:35.478Z,28.16
2023-05-14T05:16:35.463Z,30.92
2023-05-14T05:17:35.546Z,28.41
2023-05-14T05:18:35.504Z,28.38
2023-05-14T05:19:42.877Z,29.17
2023-05-14T05:20:35.497Z,29.49
2023-05-14T05:21:35.480Z,30.80
2023-05-14T05:23:34.433Z,29.77
2023-05-14T05:24:35.559Z,30.51
2023-05-14T05:25:35.403Z,33.55
2023-05-14T05:26:35.385Z,31.13
2023-05-14T05:27:35.436Z,32.27
2023-05-14T05:28:35.368Z,28.45
2023-05-14T05:29:35.354Z,31.78
2023-05-14T05:30:35.320Z,30.99
2023-05-14T05:31:35.403Z,28.30
2023-05-14T05:32:35.354Z,26.99
2023-05-14T05:33:35.309Z,30.79
2023-05-14T05:34:35.282Z,30.66
2023-05-14T05:35:35.300Z,28.32
2023-05-14T05:36:35.248Z,28.57
2023-05-14T05:37:35.240Z,27.59
2023-05-14T05:38:35.245Z,26.36
2023-05-14T05:39:35.418Z,28.00
2023-05-14T05:40:35.186Z,28.02
2023-05-14T05:41:35.170Z,27.86
2023-05-14T05:42:35.156Z,27.55
2023-05-14T05:43:35.139Z,28.80
2023-05-14T05:44:35.130Z,28.32
2023-05-14T05:45:35.126Z,28.23
2023-05-14T05:46:35.125Z,30.84
2023-05-14T05:47:35.082Z,27.73
2023-05-14T05:48:35.059Z,28.00
2023-05-14T05:49:35.072Z,30.89
2023-05-14T05:50:35.045Z,28.14
2023-05-14T05:51:35.027Z,26.45
2023-05-14T05:52:35.008Z,27.81
2023-05-14T05:53:34.970Z,28.02
2023-05-14T05:54:34.968Z,25.80
2023-05-14T05:55:34.941Z,30.22
2023-05-14T05:56:34.949Z,26.70
2023-05-14T05:57:34.995Z,26.55
2023-05-14T05:58:35.049Z,25.99
2023-05-14T05:59:35.031Z,28.97
2023-05-14T06:00:35.049Z,27.26
2023-05-14T06:01:35.080Z,27.24
2023-05-14T06:02:35.161Z,29.12
2023-05-14T06:03:35.129Z,25.96
2023-05-14T06:04:35.154Z,25.12
2023-05-14T06:05:35.250Z,25.44
2023-05-14T06:06:35.205Z,29.73
2023-05-14T06:07:35.236Z,28.99
2023-05-14T06:08:35.247Z,28.39
2023-05-14T06:09:35.275Z,27.80
2023-05-14T06:10:35.300Z,26.46
2023-05-14T06:11:35.712Z,26.68
2023-05-14T06:12:35.354Z,25.27
2023-05-14T06:13:35.363Z,27.32
2023-05-14T06:14:35.397Z,26.15
2023-05-14T06:15:35.406Z,25.71
2023-05-14T06:16:35.496Z,28.14
2023-05-14T06:17:35.450Z,27.18
2023-05-14T06:18:35.533Z,25.55
2023-05-14T06:19:35.484Z,29.95
2023-05-14T06:20:35.537Z,28.89
2023-05-14T06:21:35.557Z,26.80
2023-05-14T06:22:35.562Z,25.91
2023-05-14T06:23:35.569Z,30.34
2023-05-14T06:24:35.578Z,28.84
2023-05-14T06:25:35.601Z,27.57
2023-05-14T06:26:35.626Z,29.06
2023-05-14T06:27:35.656Z,27.97
2023-05-14T06:28:35.744Z,31.62
2023-05-14T06:29:35.692Z,27.86
2023-05-14T06:30:35.712Z,26.58
2023-05-14T06:31:35.775Z,25.86
2023-05-14T06:32:35.794Z,25.00
2023-05-14T06:33:35.769Z,27.75
2023-05-14T06:34:35.805Z,26.68
2023-05-14T06:35:35.826Z,28.52
2023-05-14T06:36:35.844Z,29.19
2023-05-14T06:37:35.873Z,26.88
2023-05-14T06:38:35.870Z,27.16
2023-05-14T06:39:35.886Z,26.37
2023-05-14T06:40:35.912Z,27.43
2023-05-14T06:41:35.946Z,26.80
2023-05-14T06:42:35.974Z,26.47
2023-05-14T06:43:35.976Z,28.10
2023-05-14T06:44:35.994Z,25.01
2023-05-14T06:45:36.016Z,30.27
2023-05-14T06:46:36.022Z,29.66
2023-05-14T06:47:36.135Z,28.14
2023-05-14T06:48:36.113Z,25.56
2023-05-14T06:49:36.085Z,25.61
2023-05-14T06:50:36.105Z,27.47
2023-05-14T06:51:36.134Z,26.63
2023-05-14T06:52:36.143Z,28.52
2023-05-14T06:53:36.186Z,28.24
2023-05-14T06:54:36.213Z,26.19
2023-05-14T06:55:36.208Z,28.61
2023-05-14T06:56:36.222Z,25.35
2023-05-14T06:57:37.294Z,26.88
2023-05-14T06:58:36.215Z,32.41
2023-05-14T06:59:36.205Z,31.24
2023-05-14T07:00:36.195Z,30.52
2023-05-14T07:01:36.225Z,28.35
2023-05-14T07:02:36.238Z,29.76
2023-05-14T07:03:36.095Z,28.08
2023-05-14T07:04:36.275Z,27.97
2023-05-14T07:05:36.044Z,28.29
2023-05-14T07:06:36.023Z,28.08
2023-05-14T07:07:35.989Z,27.65
2023-05-14T07:08:35.971Z,28.87
2023-05-14T07:09:36.092Z,27.71
2023-05-14T07:10:35.956Z,26.31
2023-05-14T07:11:35.896Z,26.70
2023-05-14T07:12:35.923Z,30.08
2023-05-14T07:13:35.847Z,27.59
2023-05-14T07:14:35.818Z,25.42
2023-05-14T07:15:35.890Z,31.67
2023-05-14T07:16:35.818Z,29.33
2023-05-14T07:17:35.779Z,28.90
2023-05-14T07:18:35.784Z,31.03
2023-05-14T07:19:35.724Z,30.02
2023-05-14T07:20:35.701Z,27.72
2023-05-14T07:21:35.671Z,27.39
2023-05-14T07:22:35.639Z,28.99
2023-05-14T07:23:35.619Z,25.48
2023-05-14T07:24:35.603Z,27.39
2023-05-14T07:25:35.603Z,26.92
2023-05-14T07:26:35.557Z,28.04
2023-05-14T07:27:35.575Z,29.27
2023-05-14T07:28:35.504Z,30.10
2023-05-14T07:29:35.478Z,25.75
2023-05-14T07:30:35.448Z,28.69
2023-05-14T07:31:35.528Z,25.57
2023-05-14T07:32:35.440Z,27.24
2023-05-14T07:33:35.437Z,29.47
2023-05-14T07:34:35.365Z,26.07
2023-05-14T07:35:35.338Z,29.10
2023-05-14T07:36:35.307Z,25.78
2023-05-14T07:37:35.295Z,27.19
2023-05-14T07:38:35.276Z,26.96
2023-05-14T07:39:35.335Z,25.70
2023-05-14T07:40:35.243Z,26.86
2023-05-14T07:41:35.275Z,26.78
2023-05-14T07:42:36.946Z,30.92
2023-05-14T07:43:35.245Z,33.07
2023-05-14T07:44:35.217Z,32.69
2023-05-14T07:45:35.258Z,30.30
2023-05-14T07:46:35.168Z,30.64
2023-05-14T07:47:35.249Z,31.61
2023-05-14T07:48:35.155Z,28.92
2023-05-14T07:49:35.076Z,30.05
2023-05-14T07:50:35.121Z,29.67
2023-05-14T07:51:35.040Z,28.95
2023-05-14T07:52:35.005Z,29.24
2023-05-14T07:53:34.975Z,30.47
2023-05-14T07:54:34.952Z,29.65
2023-05-14T07:55:34.924Z,30.05
2023-05-14T07:56:34.944Z,28.30
2023-05-14T07:57:34.948Z,31.22
2023-05-14T07:58:34.862Z,28.82
2023-05-14T07:59:34.838Z,30.43
2023-05-14T08:00:34.815Z,31.30
2023-05-14T08:01:35.163Z,29.66
2023-05-14T08:02:34.871Z,33.10
2023-05-14T08:04:33.852Z,31.96
2023-05-14T08:05:34.689Z,30.57
2023-05-14T08:06:34.687Z,31.34
2023-05-14T08:07:34.669Z,30.21
2023-05-14T08:08:34.697Z,29.69
2023-05-14T08:09:34.615Z,30.10
2023-05-14T08:10:34.652Z,29.45
2023-05-14T08:11:34.563Z,34.72
2023-05-14T08:12:34.545Z,31.97
2023-05-14T08:13:34.571Z,29.03
2023-05-14T08:14:34.591Z,31.53
2023-05-14T08:15:34.487Z,30.33
2023-05-14T08:16:34.614Z,33.71
2023-05-14T08:17:34.513Z,32.08
2023-05-14T08:18:34.511Z,32.38
2023-05-14T08:19:34.495Z,31.10
2023-05-14T08:20:34.546Z,30.53
2023-05-14T08:21:34.499Z,32.99
2023-05-14T08:22:34.501Z,31.48
2023-05-14T08:23:34.502Z,30.48
2023-05-14T08:24:34.515Z,31.23
2023-05-14T08:25:34.513Z,34.40
2023-05-14T08:26:34.535Z,29.65
2023-05-14T08:27:34.521Z,32.42
2023-05-14T08:28:34.495Z,32.96
2023-05-14T08:29:34.515Z,33.13
2023-05-14T08:30:34.675Z,31.50
2023-05-14T08:31:34.490Z,31.92
2023-05-14T08:32:34.554Z,32.88
2023-05-14T08:33:34.494Z,32.55
2023-05-14T08:34:34.522Z,30.64
2023-05-14T08:35:34.505Z,30.90
2023-05-14T08:36:35.268Z,31.57
2023-05-14T08:37:34.491Z,31.51
2023-05-14T08:38:34.505Z,30.89
2023-05-14T08:39:34.500Z,30.87
2023-05-14T08:40:34.494Z,31.29
2023-05-14T08:41:34.502Z,32.94
2023-05-14T08:42:34.526Z,31.66
2023-05-14T08:43:34.487Z,31.98
2023-05-14T08:44:34.539Z,28.86
2023-05-14T08:45:34.548Z,29.69
2023-05-14T08:46:34.496Z,31.37
2023-05-14T08:47:34.555Z,30.99
2023-05-14T08:48:34.746Z,30.30
2023-05-14T08:49:34.486Z,30.67
2023-05-14T08:50:34.485Z,32.11
2023-05-14T08:51:34.470Z,28.49
2023-05-14T08:52:34.474Z,34.16
2023-05-14T08:53:34.475Z,30.51
2023-05-14T08:54:34.511Z,30.33
2023-05-14T08:55:34.423Z,34.09
2023-05-14T08:56:34.465Z,30.84
2023-05-14T08:57:34.518Z,29.50
2023-05-14T08:58:34.397Z,32.91
2023-05-14T08:59:34.393Z,29.67
2023-05-14T09:00:34.424Z,29.56
2023-05-14T09:01:34.412Z,29.21
2023-05-14T09:02:34.415Z,28.81
2023-05-14T09:03:34.403Z,30.06
2023-05-14T09:04:34.392Z,28.95
2023-05-14T09:05:34.321Z,31.83
2023-05-14T09:06:34.310Z,29.26
2023-05-14T09:07:34.305Z,31.21
2023-05-14T09:08:34.335Z,29.67
2023-05-14T09:09:34.285Z,28.21
2023-05-14T09:10:34.241Z,27.87
2023-05-14T09:11:34.224Z,27.29
2023-05-14T09:12:34.203Z,29.65
2023-05-14T09:13:34.200Z,28.06
2023-05-14T09:14:34.260Z,29.98
2023-05-14T09:15:34.146Z,28.63
2023-05-14T09:16:33.188Z,29.66
2023-05-14T09:17:34.185Z,30.76
2023-05-14T09:18:34.180Z,29.43
2023-05-14T09:19:34.060Z,31.38
2023-05-14T09:20:34.067Z,29.56
2023-05-14T09:21:34.018Z,30.31
2023-05-14T09:22:34.019Z,28.37
2023-05-14T09:23:33.984Z,29.26
2023-05-14T09:24:34.043Z,27.14
2023-05-14T09:25:33.952Z,29.56
2023-05-14T09:26:33.996Z,28.01
2023-05-14T09:27:33.930Z,29.65
2023-05-14T09:28:33.894Z,29.96
2023-05-14T09:29:33.869Z,27.74
2023-05-14T09:30:33.861Z,28.73
2023-05-14T09:31:33.918Z,29.66
2023-05-14T09:32:33.858Z,27.88
2023-05-14T09:33:33.817Z,29.84
2023-05-14T09:34:33.911Z,31.06
2023-05-14T09:35:33.751Z,30.26
2023-05-14T09:36:33.730Z,29.75
2023-05-14T09:37:33.719Z,29.88
2023-05-14T09:38:33.700Z,29.66
2023-05-14T09:39:33.669Z,28.78
2023-05-14T09:40:33.656Z,29.49
2023-05-14T09:41:33.628Z,30.44
2023-05-14T09:42:33.607Z,30.10
2023-05-14T09:43:33.581Z,30.92
2023-05-14T09:44:33.638Z,28.44
2023-05-14T09:45:33.552Z,31.26
2023-05-14T09:46:33.523Z,30.17
2023-05-14T09:47:33.622Z,31.21
2023-05-14T09:48:33.503Z,28.83
2023-05-14T09:49:33.483Z,30.78
2023-05-14T09:50:33.462Z,30.88
2023-05-14T09:51:33.420Z,30.11
2023-05-14T09:52:33.394Z,31.02
2023-05-14T09:53:33.358Z,30.57
2023-05-14T09:54:33.378Z,27.74
2023-05-14T09:55:33.328Z,29.19
2023-05-14T09:56:33.359Z,33.69
2023-05-14T09:57:33.298Z,30.69
2023-05-14T09:58:33.265Z,31.50
2023-05-14T09:59:33.253Z,33.27
2023-05-14T10:00:33.232Z,33.01
2023-05-14T10:01:33.290Z,31.92
2023-05-14T10:02:33.243Z,32.30
2023-05-14T10:03:33.169Z,32.35
2023-05-14T10:04:33.206Z,33.67
2023-05-14T10:05:33.150Z,33.21
2023-05-14T10:06:33.100Z,33.14
2023-05-14T10:07:33.093Z,33.52
2023-05-14T10:08:33.059Z,36.32
2023-05-14T10:09:33.025Z,33.57
2023-05-14T10:10:33.007Z,31.30
2023-05-14T10:11:32.990Z,34.21
2023-05-14T10:12:32.973Z,31.60
2023-05-14T10:13:32.936Z,34.37
2023-05-14T10:14:32.973Z,33.91
2023-05-14T10:15:32.886Z,33.54
2023-05-14T10:16:32.920Z,33.38
2023-05-14T10:17:32.968Z,32.97
2023-05-14T10:18:32.856Z,34.89
2023-05-14T10:19:32.792Z,34.28
2023-05-14T10:20:32.779Z,33.98
2023-05-14T10:21:32.816Z,36.57
2023-05-14T10:22:32.777Z,35.04
2023-05-14T10:23:32.709Z,34.81
2023-05-14T10:24:32.699Z,34.80
2023-05-14T10:25:32.668Z,34.11
2023-05-14T10:26:32.637Z,34.73
2023-05-14T10:27:32.736Z,32.91
2023-05-14T10:28:32.608Z,34.12
2023-05-14T10:29:32.609Z,34.87
2023-05-14T10:30:32.584Z,36.37
2023-05-14T10:31:32.659Z,34.98
2023-05-14T10:32:32.629Z,34.36
2023-05-14T10:33:32.668Z,33.21
2023-05-14T10:34:32.597Z,36.17
2023-05-14T10:35:32.529Z,33.43
2023-05-14T10:36:32.523Z,35.16
2023-05-14T10:37:32.547Z,34.66
2023-05-14T10:38:32.493Z,38.07
2023-05-14T10:39:32.563Z,32.52
2023-05-14T10:40:32.476Z,34.09
2023-05-14T10:41:32.461Z,35.04
2023-05-14T10:42:32.449Z,34.19
2023-05-14T10:43:32.444Z,36.25
2023-05-14T10:44:32.420Z,33.49
2023-05-14T10:45:32.565Z,34.23
2023-05-14T10:46:32.431Z,34.45
2023-05-14T10:47:32.417Z,34.09
2023-05-14T10:48:32.374Z,33.12
2023-05-14T10:49:43.087Z,34.54
2023-05-14T10:50:32.328Z,34.92
2023-05-14T10:51:32.505Z,35.76
2023-05-14T10:52:32.269Z,36.65
2023-05-14T10:53:32.272Z,36.82
2023-05-14T10:54:32.266Z,37.37
2023-05-14T10:55:32.194Z,35.03
2023-05-14T10:56:32.179Z,37.12
2023-05-14T10:57:32.231Z,38.71
2023-05-14T10:58:32.121Z,37.01
2023-05-14T10:59:32.125Z,37.52
2023-05-14T11:00:32.073Z,34.88
2023-05-14T11:01:32.140Z,35.27
2023-05-14T11:02:32.154Z,34.49
2023-05-14T11:03:32.129Z,37.04
2023-05-14T11:04:31.989Z,36.49
2023-05-14T11:05:31.956Z,36.54
2023-05-14T11:06:31.935Z,37.91
2023-05-14T11:07:31.942Z,37.43
2023-05-14T11:08:31.886Z,37.08
2023-05-14T11:09:32.021Z,36.18
2023-05-14T11:10:31.831Z,38.13
2023-05-14T11:11:31.807Z,39.01
2023-05-14T11:12:31.816Z,36.23
2023-05-14T11:13:31.770Z,38.41
2023-05-14T11:14:31.745Z,36.47
2023-05-14T11:15:31.830Z,36.50
2023-05-14T11:16:31.719Z,38.50
2023-05-14T11:17:31.671Z,36.33
2023-05-14T11:18:31.696Z,37.72
2023-05-14T11:19:31.628Z,37.48
2023-05-14T11:20:31.598Z,36.84
2023-05-14T11:21:31.823Z,39.09
2023-05-14T11:22:31.553Z,38.05
2023-05-14T11:23:31.539Z,41.90
2023-05-14T11:24:31.521Z,40.75
2023-05-14T11:25:31.529Z,36.79
2023-05-14T11:26:31.501Z,39.40
2023-05-14T11:27:31.641Z,37.28
2023-05-14T11:28:31.449Z,39.90
2023-05-14T11:29:31.471Z,39.81
2023-05-14T11:30:31.422Z,39.34
2023-05-14T11:31:31.577Z,38.67
2023-05-14T11:32:31.416Z,40.12
2023-05-14T11:33:31.489Z,40.35
2023-05-14T11:34:31.370Z,40.22
2023-05-14T11:35:31.347Z,40.09
2023-05-14T11:36:31.289Z,41.72
2023-05-14T11:37:31.267Z,38.21
2023-05-14T11:38:31.244Z,39.12
2023-05-14T11:39:31.364Z,41.13
2023-05-14T11:40:31.191Z,41.49
2023-05-14T11:41:31.194Z,41.35
2023-05-14T11:42:31.140Z,42.73
2023-05-14T11:43:31.162Z,38.30
2023-05-14T11:44:31.187Z,40.77
2023-05-14T11:45:31.259Z,40.56
2023-05-14T11:46:31.222Z,42.01
2023-05-14T11:47:31.093Z,41.65
2023-05-14T11:48:31.033Z,42.55
2023-05-14T11:49:31.014Z,40.63
2023-05-14T11:50:30.971Z,44.39
2023-05-14T11:51:30.951Z,43.26
2023-05-14T11:52:30.951Z,41.60
2023-05-14T11:53:30.927Z,43.03
2023-05-14T11:54:30.869Z,45.07
2023-05-14T11:55:30.817Z,41.80
2023-05-14T11:56:30.794Z,43.23
2023-05-14T11:57:30.815Z,41.74
2023-05-14T11:58:30.762Z,45.81
2023-05-14T11:59:29.743Z,42.27
2023-05-14T12:00:30.812Z,43.74
2023-05-14T12:01:30.678Z,45.38
2023-05-14T12:02:30.727Z,44.31
2023-05-14T12:03:30.899Z,41.84
2023-05-14T12:04:30.790Z,42.54
2023-05-14T12:05:30.581Z,43.32
2023-05-14T12:06:30.669Z,44.08
2023-05-14T12:07:30.523Z,42.41
2023-05-14T12:08:30.500Z,44.46
2023-05-14T12:09:30.471Z,41.80
2023-05-14T12:10:30.471Z,46.49
2023-05-14T12:11:30.417Z,45.54
2023-05-14T12:12:30.560Z,44.93
2023-05-14T12:13:30.395Z,45.29
2023-05-14T12:14:30.348Z,46.46
2023-05-14T12:15:30.362Z,46.38
2023-05-14T12:16:30.336Z,44.64
2023-05-14T12:17:30.303Z,44.20
2023-05-14T12:18:30.364Z,46.23
2023-05-14T12:19:30.270Z,47.43
2023-05-14T12:20:30.247Z,44.19
2023-05-14T12:21:30.170Z,45.19
2023-05-14T12:22:30.152Z,49.04
2023-05-14T12:23:30.169Z,47.26
2023-05-14T12:24:30.099Z,46.14
2023-05-14T12:25:30.197Z,46.29
2023-05-14T12:26:30.112Z,48.42
2023-05-14T12:27:30.025Z,46.47
2023-05-14T12:28:30.064Z,46.73
2023-05-14T12:29:30.000Z,46.67
2023-05-14T12:30:29.935Z,47.63
2023-05-14T12:31:29.987Z,47.43
2023-05-14T12:32:29.893Z,45.42
2023-05-14T12:33:29.870Z,47.23
2023-05-14T12:34:29.837Z,46.10
2023-05-14T12:35:29.814Z,48.05
2023-05-14T12:36:29.789Z,46.30
2023-05-14T12:37:31.231Z,47.28
2023-05-14T12:38:29.848Z,46.47
2023-05-14T12:39:29.836Z,46.61
2023-05-14T12:40:29.829Z,46.87
2023-05-14T12:41:29.822Z,48.26
2023-05-14T12:42:29.817Z,46.80
2023-05-14T12:43:29.795Z,44.62
2023-05-14T12:44:29.823Z,47.24
2023-05-14T12:45:29.820Z,48.30
2023-05-14T12:46:29.767Z,47.87
2023-05-14T12:47:29.781Z,46.74
2023-05-14T12:48:29.798Z,49.28
2023-05-14T12:49:29.733Z,46.63
2023-05-14T12:50:29.721Z,49.63
2023-05-14T12:51:29.713Z,45.77
2023-05-14T12:53:28.677Z,52.21
2023-05-14T12:54:29.659Z,51.29
2023-05-14T12:55:29.628Z,50.85
2023-05-14T12:56:30.475Z,46.79